createdAt,value
2022-09-28T00:00:10.697Z,10.88
2022-09-28T00:03:28.169Z,11.01
2022-09-28T00:06:39.752Z,10.98
2022-09-28T00:09:51.245Z,10.96
2022-09-28T00:13:06.239Z,10.96
2022-09-28T00:16:20.792Z,10.92
2022-09-28T00:19:32.403Z,10.89
2022-09-28T00:22:44.104Z,10.89
2022-09-28T00:25:55.938Z,10.82
2022-09-28T00:29:08.718Z,10.76
2022-09-28T00:32:29.989Z,10.69
2022-09-28T00:35:47.947Z,10.66
2022-09-28T00:42:18.469Z,10.56
2022-09-28T00:45:34.951Z,10.53
2022-09-28T00:48:55.177Z,10.52
2022-09-28T00:52:14.894Z,10.49
2022-09-28T00:55:39.096Z,10.50
2022-09-28T00:58:59.693Z,10.48
2022-09-28T01:02:17.742Z,10.45
2022-09-28T01:05:33.427Z,10.43
2022-09-28T01:08:50.660Z,10.42
2022-09-28T01:12:02.697Z,10.40
2022-09-28T01:15:15.668Z,10.35
2022-09-28T01:18:33.752Z,10.37
2022-09-28T01:21:53.047Z,10.39
2022-09-28T01:25:14.251Z,10.42
2022-09-28T01:28:29.783Z,10.43
2022-09-28T01:31:46.089Z,10.46
2022-09-28T01:35:04.837Z,10.48
2022-09-28T01:38:21.416Z,10.47
2022-09-28T01:41:36.543Z,10.49
2022-09-28T01:44:53.334Z,10.53
2022-09-28T01:48:09.210Z,10.51
2022-09-28T01:51:26.163Z,10.53
2022-09-28T01:54:42.478Z,10.52
2022-09-28T01:57:59.515Z,10.50
2022-09-28T02:01:17.347Z,10.48
2022-09-28T02:04:35.139Z,10.49
2022-09-28T02:07:51.661Z,10.51
2022-09-28T02:11:08.146Z,10.47
2022-09-28T02:14:23.754Z,10.48
2022-09-28T02:17:35.652Z,10.48
2022-09-28T02:20:52.901Z,10.51
2022-09-28T02:24:10.554Z,10.43
2022-09-28T02:27:29.067Z,10.49
2022-09-28T02:30:42.694Z,10.48
2022-09-28T02:33:55.651Z,10.46
2022-09-28T02:37:08.394Z,10.45
2022-09-28T02:40:26.546Z,10.40
2022-09-28T02:43:45.838Z,10.28
2022-09-28T02:47:03.386Z,10.19
2022-09-28T02:50:24.392Z,10.15
2022-09-28T02:54:09.646Z,10.06
2022-09-28T02:57:31.654Z,10.00
2022-09-28T03:00:48.902Z,9.94
2022-09-28T03:04:08.149Z,9.89
2022-09-28T03:07:26.366Z,9.82
2022-09-28T03:10:44.648Z,9.75
2022-09-28T03:13:57.572Z,9.70
2022-09-28T03:17:11.038Z,9.68
2022-09-28T03:20:23.541Z,9.65
2022-09-28T03:23:35.264Z,9.58
2022-09-28T03:26:47.792Z,9.52
2022-09-28T03:29:59.562Z,9.44
2022-09-28T03:33:11.224Z,9.38
2022-09-28T03:36:23.669Z,9.32
2022-09-28T03:39:35.639Z,9.27
2022-09-28T03:42:47.786Z,9.23
2022-09-28T03:46:04.321Z,9.15
2022-09-28T03:49:18.208Z,9.13
2022-09-28T03:52:29.817Z,9.09
2022-09-28T03:55:41.399Z,9.02
2022-09-28T03:58:52.926Z,9.00
2022-09-28T04:02:04.539Z,8.97
2022-09-28T04:05:17.710Z,8.95
2022-09-28T04:08:29.723Z,8.93
2022-09-28T04:11:59.694Z,8.90
2022-09-28T04:14:55.620Z,8.88
2022-09-28T04:18:07.237Z,8.85
2022-09-28T04:21:25.677Z,8.82
2022-09-28T04:24:43.585Z,8.79
2022-09-28T04:28:11.257Z,8.75
2022-09-28T04:31:25.880Z,8.73
2022-09-28T04:34:41.879Z,8.69
2022-09-28T04:37:51.128Z,8.68
2022-09-28T04:41:02.955Z,8.67
2022-09-28T04:44:15.400Z,8.63
2022-09-28T04:47:27.192Z,8.60
2022-09-28T04:50:41.204Z,8.55
2022-09-28T04:54:04.362Z,8.54
2022-09-28T04:57:15.954Z,8.51
2022-09-28T05:00:27.408Z,8.49
2022-09-28T05:03:40.890Z,8.52
2022-09-28T05:07:11.304Z,8.53
2022-09-28T05:10:23.443Z,8.55
2022-09-28T05:13:38.242Z,8.55
2022-09-28T05:16:52.073Z,8.56
2022-09-28T05:20:07.098Z,8.67
2022-09-28T05:23:20.253Z,8.79
2022-09-28T05:26:32.151Z,8.84
2022-09-28T05:29:43.893Z,8.87
2022-09-28T05:33:05.806Z,8.84
2022-09-28T05:36:30.088Z,8.90
2022-09-28T05:39:41.576Z,8.96
2022-09-28T05:42:53.130Z,9.30
2022-09-28T05:46:06.162Z,9.94
2022-09-28T05:49:19.725Z,10.73
2022-09-28T05:52:31.726Z,11.58
2022-09-28T05:55:44.021Z,12.28
2022-09-28T05:58:56.699Z,12.57
2022-09-28T06:02:10.054Z,11.87
2022-09-28T06:05:21.877Z,11.42
2022-09-28T06:08:34.819Z,11.16
2022-09-28T06:11:48.430Z,11.10
2022-09-28T06:15:13.473Z,11.00
2022-09-28T06:18:25.501Z,11.02
2022-09-28T06:21:58.410Z,11.38
2022-09-28T06:25:11.393Z,11.46
2022-09-28T06:28:24.929Z,11.11
2022-09-28T06:31:36.984Z,11.13
2022-09-28T06:34:51.710Z,12.37
2022-09-28T06:38:16.263Z,12.92
2022-09-28T06:41:40.201Z,12.82
2022-09-28T06:44:53.982Z,13.23
2022-09-28T06:48:36.164Z,14.00
2022-09-28T06:51:48.962Z,14.68
2022-09-28T06:55:06.462Z,15.35
2022-09-28T06:58:28.263Z,15.65
2022-09-28T07:01:41.955Z,15.81
2022-09-28T07:04:55.681Z,16.59
2022-09-28T07:08:10.132Z,17.04
2022-09-28T07:11:32.572Z,16.71
2022-09-28T07:14:50.311Z,16.91
2022-09-28T07:18:07.447Z,17.17
2022-09-28T07:21:27.809Z,16.11
2022-09-28T07:24:34.179Z,15.32
2022-09-28T07:28:04.311Z,15.00
2022-09-28T07:31:18.128Z,15.34
2022-09-28T07:34:48.703Z,16.09
2022-09-28T07:38:09.996Z,16.53
2022-09-28T07:41:24.087Z,16.77
2022-09-28T07:44:36.600Z,17.02
2022-09-28T07:47:49.682Z,17.35
2022-09-28T07:51:06.523Z,17.02
2022-09-28T07:54:20.094Z,15.66
2022-09-28T07:57:37.721Z,15.47
2022-09-28T08:01:14.946Z,15.84
2022-09-28T08:04:28.336Z,15.38
2022-09-28T08:07:41.059Z,15.52
2022-09-28T08:14:11.032Z,17.00
2022-09-28T08:17:33.907Z,17.68
2022-09-28T08:21:04.848Z,17.65
2022-09-28T08:24:17.545Z,17.59
2022-09-28T08:27:32.339Z,17.76
2022-09-28T08:30:44.256Z,18.36
2022-09-28T08:34:13.642Z,19.49
2022-09-28T08:37:39.759Z,19.36
2022-09-28T08:41:26.460Z,18.81
2022-09-28T08:44:49.200Z,19.15
2022-09-28T08:48:25.061Z,18.97
2022-09-28T08:52:04.354Z,18.61
2022-09-28T08:55:23.253Z,18.87
2022-09-28T08:58:36.028Z,18.65
2022-09-28T09:01:56.382Z,18.63
2022-09-28T09:05:11.110Z,18.55
2022-09-28T09:08:47.213Z,17.21
2022-09-28T09:12:08.336Z,16.93
2022-09-28T09:15:39.486Z,16.96
2022-09-28T09:18:58.984Z,16.94
2022-09-28T09:22:21.610Z,16.25
2022-09-28T09:25:39.279Z,16.15
2022-09-28T09:29:15.621Z,16.35
2022-09-28T09:32:46.693Z,16.88
2022-09-28T09:36:14.462Z,17.31
2022-09-28T09:42:42.067Z,18.98
2022-09-28T09:46:20.927Z,18.38
2022-09-28T09:49:40.918Z,18.71
2022-09-28T09:52:58.986Z,19.15
2022-09-28T09:56:18.706Z,18.76
2022-09-28T09:59:51.413Z,17.78
2022-09-28T10:03:08.076Z,18.25
2022-09-28T10:06:25.083Z,18.67
2022-09-28T10:09:41.170Z,19.03
2022-09-28T10:13:10.149Z,19.12
2022-09-28T10:16:24.362Z,19.02
2022-09-28T10:19:39.470Z,19.69
2022-09-28T10:23:14.432Z,19.96
2022-09-28T10:26:31.681Z,20.06
2022-09-28T10:29:53.808Z,20.02
2022-09-28T10:33:05.299Z,20.39
2022-09-28T10:36:18.368Z,20.75
2022-09-28T10:39:38.591Z,20.52
2022-09-28T10:42:50.752Z,19.76
2022-09-28T10:46:12.477Z,19.16
2022-09-28T10:49:28.602Z,19.56
2022-09-28T10:52:46.655Z,19.78
2022-09-28T10:56:10.616Z,19.22
2022-09-28T10:59:46.825Z,18.90
2022-09-28T11:03:04.973Z,18.35
2022-09-28T11:06:18.044Z,17.91
2022-09-28T11:09:35.649Z,17.65
2022-09-28T11:12:51.550Z,18.48
2022-09-28T11:16:03.694Z,18.47
2022-09-28T11:19:33.617Z,18.14
2022-09-28T11:22:51.471Z,18.11
2022-09-28T11:26:09.058Z,17.99
2022-09-28T11:29:38.163Z,17.76
2022-09-28T11:33:06.848Z,17.69
2022-09-28T11:36:34.899Z,17.55
2022-09-28T11:39:55.826Z,17.44
2022-09-28T11:43:19.798Z,17.50
2022-09-28T11:52:39.003Z,18.35
2022-09-28T11:55:59.918Z,19.09
2022-09-28T11:59:16.865Z,19.16
2022-09-28T12:02:35.880Z,19.39
2022-09-28T12:05:54.783Z,19.78
2022-09-28T12:09:15.316Z,19.42
2022-09-28T12:12:53.826Z,19.67
2022-09-28T12:16:37.535Z,19.72
2022-09-28T12:19:29.412Z,20.00
2022-09-28T12:22:46.831Z,20.05
2022-09-28T12:26:03.400Z,19.91
2022-09-28T12:29:20.105Z,19.78
2022-09-28T12:32:39.710Z,19.78
2022-09-28T12:36:11.958Z,19.81
2022-09-28T12:39:57.997Z,19.88
2022-09-28T12:43:44.874Z,20.19
2022-09-28T12:47:10.363Z,20.16
2022-09-28T12:50:39.388Z,20.01
2022-09-28T12:54:15.324Z,19.93
2022-09-28T12:57:52.415Z,20.00
2022-09-28T13:01:10.519Z,19.99
2022-09-28T13:04:46.392Z,20.09
2022-09-28T13:08:03.686Z,19.85
2022-09-28T13:11:22.121Z,19.74
2022-09-28T13:15:03.768Z,19.30
2022-09-28T13:18:29.837Z,19.11
2022-09-28T13:21:47.946Z,18.84
2022-09-28T13:25:03.905Z,18.68
2022-09-28T13:28:21.298Z,18.61
2022-09-28T13:31:38.407Z,18.54
2022-09-28T13:34:55.380Z,18.44
2022-09-28T13:38:55.189Z,18.32
2022-09-28T13:42:07.423Z,18.30
2022-09-28T13:45:58.916Z,18.23
2022-09-28T13:49:16.040Z,18.08
2022-09-28T13:52:41.107Z,18.07
2022-09-28T13:56:06.207Z,17.99
2022-09-28T13:59:27.027Z,17.98
2022-09-28T14:02:46.659Z,17.92
2022-09-28T14:06:28.298Z,17.75
2022-09-28T14:09:52.993Z,17.61
2022-09-28T14:13:06.657Z,17.45
2022-09-28T14:16:33.416Z,17.27
2022-09-28T14:19:46.441Z,17.10
2022-09-28T14:23:46.796Z,16.96
2022-09-28T14:27:56.572Z,17.03
2022-09-28T14:31:18.609Z,16.93
2022-09-28T14:34:37.205Z,16.47
2022-09-28T14:38:07.478Z,16.46
2022-09-28T14:41:35.300Z,16.34
2022-09-28T15:47:57.831Z,15.98
2022-09-28T15:51:14.425Z,15.98
2022-09-28T15:54:32.755Z,16.01
2022-09-28T15:57:46.052Z,15.99
2022-09-28T16:01:13.905Z,16.00
2022-09-28T16:04:54.602Z,16.01
2022-09-28T16:08:17.399Z,16.00
2022-09-28T16:11:31.892Z,15.98
2022-09-28T16:14:44.045Z,15.95
2022-09-28T16:18:02.616Z,15.92
2022-09-28T16:30:28.976Z,15.86
2022-09-28T16:33:48.085Z,15.82
2022-09-28T16:36:59.999Z,15.83
2022-09-28T16:40:14.117Z,15.83
2022-09-28T16:43:31.049Z,15.81
2022-09-28T16:46:44.423Z,15.80
2022-09-28T16:49:57.120Z,15.82
2022-09-28T16:53:31.808Z,15.82
2022-09-28T16:56:44.008Z,15.76
2022-09-28T16:59:55.743Z,15.74
2022-09-28T17:03:10.491Z,15.72
2022-09-28T17:06:25.463Z,15.71
2022-09-28T17:09:37.261Z,15.71
2022-09-28T17:12:48.922Z,15.69
2022-09-28T17:16:01.663Z,15.63
2022-09-28T17:19:23.292Z,15.63
2022-09-28T17:22:35.016Z,15.58
2022-09-28T17:25:47.332Z,15.55
2022-09-28T17:28:59.461Z,15.50
2022-09-28T17:32:16.949Z,15.48
2022-09-28T17:35:28.684Z,15.48
2022-09-28T17:38:42.196Z,15.43
2022-09-28T17:41:53.850Z,15.40
2022-09-28T17:45:05.433Z,15.39
2022-09-28T17:48:23.070Z,15.33
2022-09-28T17:51:37.617Z,15.32
2022-09-28T17:54:49.445Z,15.29
2022-09-28T17:58:01.367Z,15.29
2022-09-28T18:01:13.137Z,15.28
2022-09-28T18:04:50.250Z,15.24
2022-09-28T18:07:39.196Z,15.20
2022-09-28T18:10:51.468Z,15.21
2022-09-28T18:14:04.970Z,15.19
2022-09-28T18:17:17.383Z,15.14
2022-09-28T18:20:29.744Z,15.11
2022-09-28T18:23:45.062Z,15.08
2022-09-28T18:26:57.170Z,15.08
2022-09-28T18:30:11.501Z,15.06
2022-09-28T18:33:23.483Z,15.00
2022-09-28T18:36:39.021Z,14.96
2022-09-28T18:39:51.083Z,14.91
2022-09-28T18:43:03.379Z,14.90
2022-09-28T18:46:18.236Z,14.90
2022-09-28T18:49:33.684Z,14.86
2022-09-28T18:52:47.341Z,14.85
2022-09-28T18:55:59.373Z,14.85
2022-09-28T18:59:12.685Z,14.83
2022-09-28T19:02:24.732Z,14.80
2022-09-28T19:05:36.806Z,14.53
2022-09-28T19:08:49.384Z,14.72
2022-09-28T19:12:03.995Z,14.68
2022-09-28T19:15:16.959Z,14.63
2022-09-28T19:18:28.635Z,14.63
2022-09-28T19:21:40.379Z,14.59
2022-09-28T19:24:52.198Z,14.56
2022-09-28T19:28:03.858Z,14.53
2022-09-28T19:31:19.124Z,14.50
2022-09-28T19:34:42.799Z,14.50
2022-09-28T19:37:54.607Z,14.49
2022-09-28T19:41:07.399Z,14.50
2022-09-28T19:44:24.870Z,14.50
2022-09-28T19:47:40.044Z,14.42
2022-09-28T19:51:00.656Z,14.39
2022-09-28T19:54:15.032Z,14.32
2022-09-28T19:57:28.382Z,14.26
2022-09-28T20:00:40.266Z,14.08
2022-09-28T20:03:54.176Z,14.07
2022-09-28T20:16:45.405Z,13.80
2022-09-28T20:19:58.835Z,13.80
2022-09-28T20:33:28.975Z,13.66
2022-09-28T20:36:42.156Z,13.66
2022-09-28T20:39:53.922Z,13.63
2022-09-28T20:43:06.008Z,13.58
2022-09-28T20:46:21.380Z,13.52
2022-09-28T20:49:33.084Z,13.47
2022-09-28T20:52:44.778Z,13.34
2022-09-28T20:56:08.402Z,13.29
2022-09-28T20:59:20.362Z,13.19
2022-09-28T21:02:32.093Z,13.09
2022-09-28T21:05:44.560Z,13.07
2022-09-28T21:08:56.865Z,13.00
2022-09-28T21:12:09.232Z,12.89
2022-09-28T21:15:20.937Z,12.87
2022-09-28T21:18:32.760Z,12.79
2022-09-28T21:21:44.280Z,12.78
2022-09-28T21:24:55.929Z,12.73
2022-09-28T21:28:07.808Z,12.74
2022-09-28T21:31:22.625Z,12.72
2022-09-28T21:34:35.896Z,12.73
2022-09-28T21:37:47.544Z,12.75
2022-09-28T21:41:04.326Z,12.73
2022-09-28T21:44:16.630Z,12.70
2022-09-28T21:47:29.850Z,12.74
2022-09-28T21:50:41.450Z,12.77
2022-09-28T21:53:54.106Z,12.76
2022-09-28T21:57:05.693Z,12.78
2022-09-28T22:00:20.375Z,12.80
2022-09-28T22:03:32.317Z,12.78
2022-09-28T22:06:43.962Z,12.78
2022-09-28T22:09:55.542Z,12.77
2022-09-28T22:13:07.359Z,12.78
2022-09-28T22:16:21.521Z,12.81
2022-09-28T22:19:36.286Z,12.81
2022-09-28T22:22:48.056Z,12.86
2022-09-28T22:26:06.367Z,12.87
2022-09-28T22:29:18.151Z,12.84
2022-09-28T22:32:30.165Z,12.81
2022-09-28T22:35:41.712Z,12.74
2022-09-28T22:38:54.414Z,12.68
2022-09-28T22:42:06.092Z,12.58
2022-09-28T22:45:17.882Z,12.57
2022-09-28T22:48:29.472Z,12.57
2022-09-28T22:51:41.045Z,12.51
2022-09-28T22:54:53.920Z,12.44
2022-09-28T22:58:06.037Z,12.37
2022-09-28T23:01:21.098Z,12.36
2022-09-28T23:04:33.620Z,12.36
2022-09-28T23:07:45.368Z,12.36
2022-09-28T23:11:00.125Z,12.33
2022-09-28T23:14:13.604Z,12.33
2022-09-28T23:17:25.130Z,12.29
2022-09-28T23:20:39.975Z,12.27
2022-09-28T23:23:54.623Z,12.26
2022-09-28T23:27:07.307Z,12.20
2022-09-28T23:30:19.754Z,12.19
2022-09-28T23:33:31.451Z,12.24
2022-09-28T23:36:43.377Z,12.21
2022-09-28T23:39:54.984Z,12.22
2022-09-28T23:43:06.630Z,12.20
2022-09-28T23:46:20.875Z,12.22
2022-09-28T23:49:32.347Z,12.20
2022-09-28T23:52:44.089Z,12.18
2022-09-28T23:55:55.636Z,12.23
2022-09-28T23:59:07.518Z,12.16
